Aeroporto :
LOGIN :

Iscrizione | Disclaimer

   EN    FR    IT 

 










Sommario :    VFR   VFR Marginale   IFR   IFR Intensivo   IFR Molto Intensivo
Visibilità : 
Base nubi : 
>= 8 km
>= 3000ft
5 / 8 km
1000 / 3000 ft
1500m / 5 km
500 / 1000 ft
800 / 1500m
200 / 500 ft
< 800m
< 200 ft
Simboli :   Temporali  Nebbia  Neve Forte  Precipitazioni Forti  Vento > 20 kt
SIGMETs :   Varie  Temporali  Ghiacco  Turbolenza  Onda orograficha  Ceneri Vulcaniche






- Altitudine del aeroporto : 604 ft
- Codice IATA : LCJ


EPLL - Lodz

ULTIMO METAR :
  • 210030Z 17005KT 130V210 9999 BKN032 02/M02 Q1014

METARs OBSOLETI :
  • 210000Z 18005KT 130V210 9999 SCT034 BKN040 02/M02 Q1015
  • 202330Z 16004KT 110V220 CAVOK 02/M02 Q1015
  • 202300Z 15005KT 120V210 CAVOK 01/M02 Q1015
  • 202230Z 15006KT 120V200 CAVOK 01/M01 Q1016
  • 202200Z 15007KT 110V190 CAVOK 02/M01 Q1017

TAF TAF EPLL
Valido dal 21 a 00 ore il 22 a 00 ore UTC


202330Z 2100/2124 17007KT CAVOK
BECMG 2105/2107 RA BKN004 OVC012
TEMPO 2106/2109 22015G25KT 3000 RASN
BECMG 2109/2112 30012KT NSW BKN030
TEMPO 2109/2112 32018G31KT 3000 RA BKN012
TEMPO 2112/2121 SHRA BKN025CB
PROB30 2121/2124 BKN014



MetMap, La meteo Aeronautica in un colpo d'occhio ! - Copyright ORBIFLY Dicembre 2007 - Disclaimer

ORBIFLY MET'MAP TEAM :

Programmazione e sviluppo : Alexandra Zaïnal
Concezione : Baudouin d'Aumeries
Aiuto per la programmazione : Marc-Olivier Méhu
Supporto tecnico e logistico : Manuel Goepfert
Aiuto per la traduzione : Arnaldo La Scala

Contatto : metmap@orbifly.com




FONTI E CREDITI :

   NOAA